Terminal Aerodrome Forecast
Issued by NWS Paducah, KY

Home | Current Version | Previous Version | Text Only | Print | Product List | Glossary On
Versions: 1 2 3 4 5 6 7 8 9 10 11 12 13 14 15 16 17 18 19 20 21 22 23
135
FTUS43 KPAH 231138
TAFEVV
TAF
KEVV 231138Z 2312/2412 20009KT P6SM -SHRA BKN010 OVC100
      TEMPO 2312/2315 5SM -SHRA BR BKN008
     FM231500 24007KT P6SM VCSH OVC008
     FM231900 28005KT P6SM OVC015
     FM232200 01003KT P6SM SCT010 OVC100
     FM240500 03007KT 5SM -SHRA BR OVC010=

USA.gov is the U.S. government's official web portal to all federal, state and local government web resources and services.